Time;durP1;ratioP1;P1;durP2;ratioP2;P2;SDS_P1;SDS_P2;PMS_P1;PMS_P2;Temp;Humidity;BMP_temperature;BMP_pressure;BME280_temperature;BME280_humidity;BME280_pressure;Samples;Min_cycle;Max_cycle;Signal;HPM_P1;HPM_P2
2023/04/06 00:00:23;;;;;;;;;24.75;18.25;;;;;14.16;47.93;101536.75;5018497;28;45547;-68
2023/04/06 00:02:48;;;;;;;;;20.75;17.00;;;;;14.18;48.14;101538.53;5038507;28;45443;-68
2023/04/06 00:05:13;;;;;;;;;26.00;19.50;;;;;14.19;48.30;101538.53;5037183;28;49724;-68
2023/04/06 00:07:39;;;;;;;;;24.25;20.50;;;;;14.19;49.09;101535.88;5037181;28;52483;-68
2023/04/06 00:10:05;;;;;;;;;25.75;22.50;;;;;14.19;48.76;101537.66;5031942;28;45494;-69
2023/04/06 00:12:30;;;;;;;;;26.00;19.75;;;;;14.18;49.48;101534.13;5037287;28;45328;-69
2023/04/06 00:14:55;;;;;;;;;22.75;16.75;;;;;14.14;49.66;101519.91;5038392;28;45365;-68
2023/04/06 00:17:21;;;;;;;;;23.00;20.00;;;;;14.16;49.85;101526.13;5037020;28;59637;-69
2023/04/06 00:19:46;;;;;;;;;22.50;20.00;;;;;14.19;49.80;101527.03;5037670;28;45300;-69
2023/04/06 00:22:11;;;;;;;;;19.50;17.75;;;;;14.16;50.17;101519.91;5037112;28;54284;-69
2023/04/06 00:24:37;;;;;;;;;20.25;18.50;;;;;14.14;50.46;101529.66;5036944;28;45514;-69
2023/04/06 00:27:02;;;;;;;;;26.00;19.25;;;;;14.15;50.36;101527.00;5037603;28;45492;-68
2023/04/06 00:29:28;;;;;;;;;25.25;18.00;;;;;14.13;50.51;101517.25;5037055;28;57129;-69
2023/04/06 00:31:53;;;;;;;;;24.00;20.00;;;;;14.14;51.09;101525.22;5036726;28;45860;-68
2023/04/06 00:34:18;;;;;;;;;25.00;17.25;;;;;14.11;51.11;101514.59;5037842;28;45502;-68
2023/04/06 00:36:44;;;;;;;;;23.25;19.00;;;;;14.10;51.21;101506.59;5036537;28;45524;-69
2023/04/06 00:39:10;;;;;;;;;21.25;17.75;;;;;14.11;51.61;101513.69;5036983;28;45806;-69
2023/04/06 00:41:35;;;;;;;;;17.00;15.00;;;;;14.11;51.82;101513.69;5012883;28;45436;-69
2023/04/06 00:44:01;;;;;;;;;23.00;19.25;;;;;14.09;51.77;101502.16;5037100;28;45547;-68
2023/04/06 00:46:26;;;;;;;;;22.25;16.75;;;;;14.11;51.90;101497.75;5019544;28;46177;-68
2023/04/06 00:48:51;;;;;;;;;22.00;16.50;;;;;14.09;52.62;101486.25;5036465;28;56634;-69
2023/04/06 00:51:17;;;;;;;;;22.25;19.50;;;;;14.09;52.33;101489.78;5037020;28;52193;-69
2023/04/06 00:53:42;;;;;;;;;19.50;17.25;;;;;14.11;53.14;101492.44;5033982;28;45798;-68
2023/04/06 00:56:09;;;;;;;;;21.75;17.00;;;;;14.09;53.11;101486.25;5019734;28;55617;-69
2023/04/06 00:58:38;;;;;;;;;26.25;18.00;;;;;14.09;53.06;101487.13;5036687;28;45594;-68
2023/04/06 01:01:03;;;;;;;;;21.75;20.75;;;;;14.05;53.30;101480.00;5037237;28;45360;-69
2023/04/06 01:03:29;;;;;;;;;25.50;22.00;;;;;14.03;53.80;101473.81;5036800;28;45341;-68
2023/04/06 01:05:57;;;;;;;;;24.75;17.25;;;;;14.05;53.77;101479.13;5036905;28;47342;-69
2023/04/06 01:08:24;;;;;;;;;25.75;19.25;;;;;14.04;54.15;101488.84;5030793;28;45444;-68
2023/04/06 01:10:49;;;;;;;;;23.25;21.25;;;;;14.03;54.29;101495.06;5036272;28;45427;-69
2023/04/06 01:13:14;;;;;;;;;21.75;19.50;;;;;14.02;54.20;101493.28;5036101;28;54729;-68
2023/04/06 01:15:41;;;;;;;;;25.00;21.50;;;;;14.03;54.25;101494.16;5035972;28;51396;-68
2023/04/06 01:18:10;;;;;;;;;21.75;19.75;;;;;14.02;54.42;101485.31;5036492;28;45446;-69
2023/04/06 01:20:35;;;;;;;;;18.50;17.25;;;;;14.02;54.89;101476.47;5015880;28;45476;-68
2023/04/06 01:23:00;;;;;;;;;29.00;25.00;;;;;14.04;55.27;101477.34;5036467;28;45487;-69
2023/04/06 01:25:26;;;;;;;;;25.00;19.75;;;;;14.03;55.14;101472.91;5035193;28;49037;-68
2023/04/06 01:27:51;;;;;;;;;20.25;15.25;;;;;14.04;54.94;101472.91;5035585;28;56761;-69
2023/04/06 01:30:17;;;;;;;;;20.00;19.50;;;;;14.02;55.44;101466.72;5036258;28;50978;-68
2023/04/06 01:32:42;;;;;;;;;27.50;20.50;;;;;14.00;55.55;101459.59;5028729;28;45942;-68
2023/04/06 01:35:08;;;;;;;;;24.50;17.75;;;;;14.00;55.06;101465.81;5035462;28;45741;-69
2023/04/06 01:37:33;;;;;;;;;21.25;18.75;;;;;13.96;55.24;101460.50;5036179;28;45806;-68
2023/04/06 01:39:59;;;;;;;;;20.25;15.50;;;;;13.97;55.36;101459.59;5035725;28;45755;-68
2023/04/06 01:42:25;;;;;;;;;23.50;20.75;;;;;13.96;56.13;101460.50;5036279;28;45466;-68
2023/04/06 01:44:51;;;;;;;;;28.00;21.75;;;;;13.93;55.87;101448.06;5034924;28;45843;-69
2023/04/06 01:47:16;;;;;;;;;23.50;19.50;;;;;13.96;56.35;101452.53;5036070;28;47573;-69
2023/04/06 01:49:41;;;;;;;;;22.00;18.00;;;;;13.94;56.34;101449.84;5034938;28;55245;-69
2023/04/06 01:52:07;;;;;;;;;23.50;20.00;;;;;13.92;56.30;101456.91;5035510;28;49449;-68
2023/04/06 01:54:32;;;;;;;;;21.00;18.00;;;;;13.92;56.91;101472.84;5017422;28;52861;-67
2023/04/06 01:56:57;;;;;;;;;27.00;22.50;;;;;13.88;56.83;101461.31;5034344;28;45491;-69
2023/04/06 01:59:23;;;;;;;;;23.50;19.00;;;;;13.92;56.86;101448.94;5036381;28;45422;-69
2023/04/06 02:01:48;;;;;;;;;22.75;21.00;;;;;13.91;57.03;101446.28;5035166;28;52000;-68
2023/04/06 02:04:14;;;;;;;;;25.50;22.00;;;;;13.91;57.33;101440.97;5035202;28;60235;-68
2023/04/06 02:06:40;;;;;;;;;22.00;21.25;;;;;13.92;57.60;101438.34;5035847;28;45498;-69
2023/04/06 02:09:05;;;;;;;;;26.25;22.25;;;;;13.90;57.36;101440.06;5035086;28;45497;-69
2023/04/06 02:11:30;;;;;;;;;28.25;25.00;;;;;13.90;57.36;101434.75;5035971;28;45440;-68
2023/04/06 02:13:56;;;;;;;;;22.00;19.75;;;;;13.93;57.56;101440.09;5036259;28;45342;-68
2023/04/06 02:16:21;;;;;;;;;25.75;21.50;;;;;13.91;57.55;101433.91;5035021;28;45470;-68
2023/04/06 02:18:47;;;;;;;;;20.50;19.00;;;;;13.94;57.77;101435.69;5035724;28;45307;-69
2023/04/06 02:21:12;;;;;;;;;21.00;21.00;;;;;13.92;57.73;101422.41;5034457;28;45289;-69
2023/04/06 02:23:38;;;;;;;;;25.00;23.50;;;;;13.95;58.60;101422.41;5035667;28;46845;-69
2023/04/06 02:26:03;;;;;;;;;23.50;20.25;;;;;13.95;58.55;101430.38;5035761;28;48339;-68
2023/04/06 02:28:28;;;;;;;;;23.50;20.50;;;;;13.94;58.06;101420.63;5035127;28;46124;-69
2023/04/06 02:30:54;;;;;;;;;21.50;21.50;;;;;13.98;58.63;101424.22;5035493;28;51880;-68
2023/04/06 02:33:19;;;;;;;;;23.00;22.00;;;;;13.96;58.66;101410.03;5034690;28;57856;-68
2023/04/06 02:35:45;;;;;;;;;24.75;20.25;;;;;13.96;59.16;101416.25;5035302;28;45436;-68
2023/04/06 02:38:11;;;;;;;;;27.00;19.75;;;;;13.93;59.18;101410.91;5008767;28;45484;-68
2023/04/06 02:40:36;;;;;;;;;21.00;17.00;;;;;13.94;59.51;101396.75;5034562;28;50495;-69
2023/04/06 02:43:01;;;;;;;;;22.00;21.25;;;;;13.91;59.34;101402.06;5034418;28;53026;-69
2023/04/06 02:45:27;;;;;;;;;23.50;21.50;;;;;13.87;59.43;101402.91;5034490;28;45240;-68
2023/04/06 02:47:52;;;;;;;;;22.00;19.25;;;;;13.79;59.33;101413.44;5035117;28;45368;-68
2023/04/06 02:50:17;;;;;;;;;26.00;19.75;;;;;13.77;59.44;101416.97;5034008;28;52385;-68
2023/04/06 02:52:43;;;;;;;;;22.25;21.00;;;;;13.76;59.74;101416.09;5032371;28;61160;-68
2023/04/06 02:55:08;;;;;;;;;25.00;20.75;;;;;13.73;59.98;101401.91;5036666;28;45296;-69
2023/04/06 02:57:34;;;;;;;;;21.25;19.75;;;;;13.71;60.05;101398.38;5037898;28;45589;-69
2023/04/06 02:59:59;;;;;;;;;25.25;20.00;;;;;13.68;59.91;101415.13;5035116;28;45533;-68
2023/04/06 03:02:25;;;;;;;;;26.25;20.00;;;;;13.70;60.43;101415.16;5034923;28;45622;-69
2023/04/06 03:04:50;;;;;;;;;26.25;20.50;;;;;13.68;60.15;101412.47;5033671;28;45520;-68
2023/04/06 03:07:15;;;;;;;;;28.50;21.25;;;;;13.68;61.01;101419.56;5034432;28;52184;-69
2023/04/06 03:09:41;;;;;;;;;21.75;18.25;;;;;13.67;60.63;101431.94;5034910;28;49620;-69
2023/04/06 03:12:06;;;;;;;;;22.00;17.50;;;;;13.70;60.26;101423.13;5034427;28;61515;-69
2023/04/06 03:14:32;;;;;;;;;24.25;20.75;;;;;13.70;60.63;101412.50;5034826;28;45549;-68
2023/04/06 03:16:57;;;;;;;;;25.75;22.25;;;;;13.71;60.63;101408.97;5034977;28;51232;-68
2023/04/06 03:19:22;;;;;;;;;23.75;19.25;;;;;13.71;60.66;101404.56;5034763;28;51030;-69
2023/04/06 03:21:48;;;;;;;;;27.00;21.75;;;;;13.68;60.34;101408.94;5034675;28;45748;-69
2023/04/06 03:24:13;;;;;;;;;23.75;20.75;;;;;13.67;60.58;101410.72;5040841;28;45491;-69
2023/04/06 03:26:39;;;;;;;;;22.75;21.75;;;;;13.66;60.87;101408.94;5033885;28;45447;-69
2023/04/06 03:29:04;;;;;;;;;23.00;20.25;;;;;13.69;61.11;101413.38;5035464;28;45463;-68
2023/04/06 03:31:30;;;;;;;;;26.75;23.00;;;;;13.70;60.82;101417.81;5034941;28;45573;-69
2023/04/06 03:33:55;;;;;;;;;18.50;15.25;;;;;13.68;61.08;101412.47;5037593;28;60832;-68
2023/04/06 03:36:21;;;;;;;;;24.75;20.25;;;;;13.66;60.56;101397.44;5038012;28;45404;-69
2023/04/06 03:38:46;;;;;;;;;21.25;19.50;;;;;13.65;60.99;101398.31;5038068;28;45503;-68
2023/04/06 03:41:11;;;;;;;;;24.00;20.50;;;;;13.65;60.88;101396.56;5010832;28;46526;-69
2023/04/06 03:43:37;;;;;;;;;22.00;17.25;;;;;13.65;61.10;101400.97;5036573;28;57045;-69
2023/04/06 03:46:02;;;;;;;;;27.25;19.50;;;;;13.62;60.65;101392.09;5038062;28;45618;-69
2023/04/06 03:48:27;;;;;;;;;27.00;19.25;;;;;13.66;61.24;101393.03;5037627;28;54958;-68
2023/04/06 03:50:53;;;;;;;;;20.25;20.00;;;;;13.68;61.38;101393.03;5037230;28;62779;-68
2023/04/06 03:53:18;;;;;;;;;30.50;20.75;;;;;13.68;61.33;101395.66;5035101;28;52888;-68
2023/04/06 03:55:44;;;;;;;;;21.75;18.75;;;;;13.69;61.23;101402.75;5021991;28;45565;-69
2023/04/06 03:58:09;;;;;;;;;22.25;20.25;;;;;13.68;61.33;101393.03;5037846;28;45157;-69
2023/04/06 04:00:35;;;;;;;;;26.50;21.25;;;;;13.64;61.68;101386.81;5037927;28;45670;-69
2023/04/06 04:03:01;;;;;;;;;21.50;18.75;;;;;13.61;61.38;101394.75;5037697;28;45306;-68
2023/04/06 04:05:27;;;;;;;;;18.00;17.75;;;;;13.57;61.62;101390.28;5037880;28;45284;-69
2023/04/06 04:07:52;;;;;;;;;21.75;19.50;;;;;13.55;62.07;101400.91;5038152;28;45329;-68
2023/04/06 04:10:18;;;;;;;;;19.50;19.00;;;;;13.50;62.01;101394.66;5036697;28;61885;-68
2023/04/06 04:12:43;;;;;;;;;22.75;18.75;;;;;13.54;62.75;101391.16;5038026;28;55364;-69
2023/04/06 04:15:09;;;;;;;;;15.00;15.00;;;;;13.52;62.84;101378.75;5036971;28;50489;-68
2023/04/06 04:17:34;;;;;;;;;21.75;19.00;;;;;13.56;63.59;101389.41;5019945;28;45745;-68
2023/04/06 04:19:59;;;;;;;;;25.25;17.50;;;;;13.54;63.67;101384.97;5036332;28;53664;-69
2023/04/06 04:22:25;;;;;;;;;26.50;21.25;;;;;13.54;64.64;101384.97;5037863;28;45296;-68
2023/04/06 04:24:50;;;;;;;;;19.00;18.25;;;;;13.52;64.24;101381.41;5038142;28;45343;-69
2023/04/06 04:27:15;;;;;;;;;21.75;19.50;;;;;13.53;64.29;101386.75;5036699;28;45596;-68
2023/04/06 04:29:41;;;;;;;;;21.00;18.75;;;;;13.49;64.84;101382.28;5037480;28;45309;-68
2023/04/06 04:32:06;;;;;;;;;20.50;18.50;;;;;13.53;64.63;101388.47;5019411;28;45507;-68
2023/04/06 04:34:32;;;;;;;;;20.25;18.75;;;;;13.53;64.34;101386.75;5036604;28;45463;-68
2023/04/06 04:36:58;;;;;;;;;21.75;20.00;;;;;13.54;64.28;101384.97;5037886;28;45553;-69
2023/04/06 04:39:23;;;;;;;;;24.75;20.75;;;;;13.57;64.01;101382.31;5036901;28;46507;-70
2023/04/06 04:41:48;;;;;;;;;21.25;15.50;;;;;13.57;64.14;101384.97;5037150;28;59374;-69
2023/04/06 04:44:14;;;;;;;;;19.50;13.75;;;;;13.56;64.65;101385.88;5034278;28;49063;-69
2023/04/06 04:46:41;;;;;;;;;22.25;18.50;;;;;13.56;64.32;101385.88;5036628;28;45488;-69
2023/04/06 04:49:06;;;;;;;;;23.00;21.00;;;;;13.56;64.78;101397.34;5035326;28;46480;-69
2023/04/06 04:51:32;;;;;;;;;27.25;19.50;;;;;13.60;64.55;101408.91;5035402;28;45482;-69
2023/04/06 04:53:57;;;;;;;;;18.00;18.00;;;;;13.61;64.51;101402.72;5035270;28;45331;-68
2023/04/06 04:56:23;;;;;;;;;21.00;20.25;;;;;13.58;63.96;101402.66;5036328;28;45594;-68
2023/04/06 04:58:48;;;;;;;;;24.75;21.75;;;;;13.63;64.10;101414.22;5035509;28;56872;-68
2023/04/06 05:01:14;;;;;;;;;21.75;17.50;;;;;13.59;63.57;101417.75;5036169;28;55890;-68
2023/04/06 05:03:39;;;;;;;;;23.25;21.00;;;;;13.58;63.63;101415.94;5036831;28;45500;-69
2023/04/06 05:06:05;;;;;;;;;17.00;17.00;;;;;13.59;63.24;101420.41;5036055;28;45293;-69
2023/04/06 05:08:31;;;;;;;;;25.75;16.00;;;;;13.55;62.92;101419.47;5036382;28;45472;-69
2023/04/06 05:10:56;;;;;;;;;19.50;14.50;;;;;13.54;62.90;101422.13;5036282;28;45554;-68
2023/04/06 05:13:22;;;;;;;;;20.00;18.00;;;;;13.53;63.24;101415.94;5034770;28;45289;-68
2023/04/06 05:15:48;;;;;;;;;14.50;13.75;;;;;13.53;63.26;101425.63;5016112;28;45447;-68
2023/04/06 05:18:13;;;;;;;;;18.00;13.25;;;;;13.53;63.28;101421.22;5007290;28;46306;-69
2023/04/06 05:20:39;;;;;;;;;14.00;14.00;;;;;13.51;64.63;101420.31;5034788;28;58253;-68
2023/04/06 05:23:04;;;;;;;;;22.00;15.00;;;;;13.50;65.24;101415.88;5150455;22;45664;-68
2023/04/06 05:25:30;;;;;;;;;16.25;13.75;;;;;13.47;65.46;101415.84;5033889;28;45511;-68
2023/04/06 05:27:55;;;;;;;;;15.25;13.75;;;;;13.50;67.14;101421.19;5016659;28;47200;-68
2023/04/06 05:30:21;;;;;;;;;17.00;15.25;;;;;13.47;67.53;101420.25;5039971;28;47010;-69
2023/04/06 05:32:46;;;;;;;;;14.50;14.25;;;;;13.48;67.14;101422.97;5032717;28;45482;-68
2023/04/06 05:35:12;;;;;;;;;21.75;16.50;;;;;13.43;66.82;101426.44;5032670;28;52470;-68
2023/04/06 05:37:38;;;;;;;;;23.75;17.75;;;;;13.43;67.04;101422.03;5034509;28;45958;-67
2023/04/06 05:40:04;;;;;;;;;22.50;19.50;;;;;13.43;67.79;101423.78;5034032;28;45519;-68
2023/04/06 05:42:45;;;;;;;;;15.75;14.50;;;;;13.40;68.12;101416.69;5036474;28;45399;-69
2023/04/06 05:45:16;;;;;;;;;16.25;14.00;;;;;13.35;72.27;101416.63;5029596;28;45557;-70
2023/04/06 05:47:41;;;;;;;;;18.50;15.75;;;;;13.26;73.57;101426.25;5018613;28;45396;-72
2023/04/06 05:50:07;;;;;;;;;12.25;10.75;;;;;13.09;78.26;101415.47;5010523;28;45341;-70
2023/04/06 05:52:33;;;;;;;;;16.75;14.50;;;;;12.95;74.71;101425.06;5031100;28;45538;-71
2023/04/06 05:54:58;;;;;;;;;15.25;15.00;;;;;12.87;76.80;101421.41;5032828;28;45336;-70
2023/04/06 05:57:23;;;;;;;;;21.00;15.25;;;;;12.75;80.81;101415.13;5030734;28;45747;-71
2023/04/06 05:59:49;;;;;;;;;16.25;14.00;;;;;12.64;86.28;101418.53;5032410;28;45341;-71
2023/04/06 06:02:14;;;;;;;;;20.00;16.25;;;;;12.52;89.29;101424.56;5035275;28;45660;-71
2023/04/06 06:04:39;;;;;;;;;23.50;19.25;;;;;12.40;90.92;101416.44;5015610;28;45613;-71
2023/04/06 06:07:05;;;;;;;;;20.75;18.50;;;;;12.35;90.36;101419.03;5033847;28;60091;-69
2023/04/06 06:09:30;;;;;;;;;20.50;16.25;;;;;12.30;96.21;101408.41;5036056;28;45479;-70
2023/04/06 06:11:56;;;;;;;;;19.25;17.50;;;;;12.24;98.94;101418.00;5034053;28;47081;-70
2023/04/06 06:14:21;;;;;;;;;25.25;19.50;;;;;12.18;100.00;101413.50;5035566;28;45372;-70
2023/04/06 06:16:47;;;;;;;;;19.75;15.25;;;;;12.06;100.00;101414.22;5032630;28;46133;-72
2023/04/06 06:19:12;;;;;;;;;25.25;19.75;;;;;11.94;100.00;101416.72;5035793;28;45419;-68
2023/04/06 06:21:38;;;;;;;;;18.00;16.25;;;;;11.94;100.00;101406.13;5034997;28;50276;-69
2023/04/06 06:24:03;;;;;;;;;25.25;19.00;;;;;12.05;100.00;101414.22;5036293;28;45672;-68
2023/04/06 06:26:29;;;;;;;;;20.75;20.75;;;;;12.15;100.00;101417.91;5033841;28;45680;-69
2023/04/06 06:28:55;;;;;;;;;19.75;18.25;;;;;12.25;100.00;101414.47;5028357;28;56651;-71
2023/04/06 06:31:22;;;;;;;;;24.50;18.50;;;;;12.33;100.00;101419.00;5034883;28;45451;-70
2023/04/06 06:33:50;;;;;;;;;17.25;16.75;;;;;12.44;100.00;101413.84;5033704;28;45329;-72
2023/04/06 06:36:15;;;;;;;;;16.25;16.25;;;;;12.57;100.00;101418.44;5034583;28;46330;-69
2023/04/06 06:38:41;;;;;;;;;20.50;19.50;;;;;12.63;100.00;101412.34;5034685;28;45501;-69
2023/04/06 06:41:06;;;;;;;;;18.00;18.00;;;;;12.71;100.00;101409.75;5033370;28;55760;-69
2023/04/06 06:43:31;;;;;;;;;21.00;18.75;;;;;12.78;100.00;101406.28;5033941;28;50605;-69
2023/04/06 06:45:58;;;;;;;;;20.25;15.50;;;;;12.89;100.00;101412.63;5033807;28;52850;-70
2023/04/06 06:48:24;;;;;;;;;17.50;16.50;;;;;12.94;100.00;101410.00;5005785;28;45603;-71
2023/04/06 06:50:50;;;;;;;;;19.25;15.50;;;;;13.01;99.41;101407.44;5034699;28;45477;-71
2023/04/06 06:53:15;;;;;;;;;25.00;20.00;;;;;13.07;99.02;101402.22;5033949;28;45683;-71
2023/04/06 06:55:40;;;;;;;;;14.50;14.00;;;;;13.10;98.53;101399.59;5031138;28;59172;-71
2023/04/06 06:58:06;;;;;;;;;21.00;17.25;;;;;13.19;98.09;101404.06;5030586;28;46281;-70
2023/04/06 07:00:32;;;;;;;;;22.00;19.00;;;;;13.20;98.58;101397.00;5030162;28;45624;-71
2023/04/06 07:02:57;;;;;;;;;19.50;17.00;;;;;13.24;98.92;101406.81;5031335;28;45922;-70
2023/04/06 07:05:23;;;;;;;;;16.25;12.75;;;;;13.27;99.71;101413.03;5027529;28;47658;-71
2023/04/06 07:07:48;;;;;;;;;22.25;17.50;;;;;13.26;99.02;101410.34;5035706;28;45471;-71
2023/04/06 07:10:13;;;;;;;;;20.00;17.25;;;;;13.28;98.60;101409.50;5035588;28;45562;-72
2023/04/06 07:12:39;;;;;;;;;17.25;15.00;;;;;13.36;98.12;101412.22;5038843;28;45409;-69
2023/04/06 07:15:05;;;;;;;;;19.25;17.00;;;;;13.38;98.16;101410.50;5023185;28;46372;-69
2023/04/06 07:17:30;;;;;;;;;27.50;17.00;;;;;13.42;98.48;101420.22;5037583;28;45453;-70
2023/04/06 07:19:56;;;;;;;;;19.25;17.00;;;;;13.44;98.19;101420.25;5037939;28;56558;-69
2023/04/06 07:22:21;;;;;;;;;24.25;20.25;;;;;13.47;97.50;101421.16;5036945;28;45488;-70
2023/04/06 07:24:46;;;;;;;;;25.75;22.50;;;;;13.48;98.31;101415.00;5042401;28;49968;-69
2023/04/06 07:27:12;;;;;;;;;26.25;21.50;;;;;13.49;98.78;101413.22;5035095;28;60013;-69
2023/04/06 07:29:37;;;;;;;;;21.00;20.00;;;;;13.50;98.83;101407.03;5037475;28;45431;-69
2023/04/06 07:32:02;;;;;;;;;21.25;18.50;;;;;13.51;100.00;101407.03;5036750;28;45988;-69
2023/04/06 07:34:28;;;;;;;;;28.25;23.50;;;;;13.54;99.78;101417.69;5037393;28;47054;-69
2023/04/06 07:36:54;;;;;;;;;26.00;22.50;;;;;13.54;99.17;101408.84;5037464;28;56529;-69
2023/04/06 07:39:19;;;;;;;;;32.00;27.75;;;;;13.62;100.00;101413.31;5037400;28;45371;-68
2023/04/06 07:41:45;;;;;;;;;21.00;20.25;;;;;13.70;100.00;101412.50;5037519;28;45330;-69
2023/04/06 07:44:10;;;;;;;;;26.00;21.50;;;;;13.72;100.00;101405.44;5038341;28;50832;-69
2023/04/06 07:46:36;;;;;;;;;21.50;17.00;;;;;13.76;100.00;101408.13;5036463;28;57903;-69
2023/04/06 07:49:02;;;;;;;;;31.50;22.25;;;;;13.77;100.00;101407.25;5036072;28;45446;-69
2023/04/06 07:51:27;;;;;;;;;24.00;24.00;;;;;13.82;100.00;101410.81;5040141;28;45531;-69
2023/04/06 07:53:52;;;;;;;;;23.50;20.75;;;;;13.85;100.00;101410.88;5041169;28;45573;-69
2023/04/06 07:56:18;;;;;;;;;28.25;22.50;;;;;13.93;100.00;101408.25;5035620;28;45321;-68
2023/04/06 07:58:43;;;;;;;;;26.25;20.25;;;;;13.96;100.00;101408.28;5036726;28;45426;-68
2023/04/06 08:01:09;;;;;;;;;24.75;19.75;;;;;14.00;100.00;101407.38;5037841;28;45582;-69
2023/04/06 08:03:35;;;;;;;;;27.00;23.75;;;;;14.00;99.87;101411.81;5036981;28;45976;-68
2023/04/06 08:06:01;;;;;;;;;25.75;20.00;;;;;13.94;99.76;101407.34;5039724;28;45375;-69
2023/04/06 08:08:26;;;;;;;;;29.25;25.25;;;;;13.96;100.00;101413.59;5034662;28;45609;-70
2023/04/06 08:10:52;;;;;;;;;20.50;18.25;;;;;14.03;99.84;101403.88;5019421;28;45534;-69
2023/04/06 08:13:17;;;;;;;;;26.25;21.50;;;;;14.03;100.00;101399.47;5036215;28;61727;-69
2023/04/06 08:15:42;;;;;;;;;21.25;18.75;;;;;14.08;100.00;101404.81;5035060;28;52302;-68
2023/04/06 08:18:08;;;;;;;;;23.75;18.25;;;;;14.15;100.00;101395.97;5037314;28;45296;-69
2023/04/06 08:20:34;;;;;;;;;27.25;19.25;;;;;14.30;100.00;101403.16;5036085;28;45463;-69
2023/04/06 08:22:59;;;;;;;;;21.75;18.50;;;;;14.42;100.00;101412.03;5035784;28;46874;-69
2023/04/06 08:25:25;;;;;;;;;22.75;21.50;;;;;14.51;99.83;101413.00;5039200;28;45507;-69
2023/04/06 08:27:50;;;;;;;;;23.25;18.25;;;;;14.56;99.84;101416.59;5035348;28;46908;-68
2023/04/06 08:30:15;;;;;;;;;20.50;18.00;;;;;14.60;99.47;101405.97;5030294;28;45467;-69
2023/04/06 08:32:41;;;;;;;;;21.50;17.00;;;;;14.68;99.11;101401.56;5036058;28;45569;-69
2023/04/06 08:35:07;;;;;;;;;20.00;20.00;;;;;14.75;98.22;101398.91;5041679;28;45503;-69
2023/04/06 08:37:33;;;;;;;;;24.00;19.00;;;;;14.82;97.65;101411.34;5035759;28;45902;-69
2023/04/06 08:39:58;;;;;;;;;28.75;19.50;;;;;14.82;96.79;101414.03;5032375;28;45434;-69
2023/04/06 08:42:26;;;;;;;;;27.00;24.00;;;;;14.78;96.47;101430.84;5033570;28;45614;-69
2023/04/06 08:44:52;;;;;;;;;25.75;19.25;;;;;14.64;96.25;101429.00;5035297;28;45645;-70
2023/04/06 08:47:18;;;;;;;;;27.50;23.00;;;;;14.58;96.51;101428.09;5036457;28;45444;-69
2023/04/06 08:49:44;;;;;;;;;23.75;23.75;;;;;14.55;96.85;101436.97;5037621;28;45664;-69
2023/04/06 08:52:10;;;;;;;;;22.75;22.00;;;;;14.56;96.91;101440.50;5031476;28;45915;-68
2023/04/06 08:54:36;;;;;;;;;29.75;22.25;;;;;14.47;96.55;101441.34;5036032;28;45436;-70
2023/04/06 08:57:02;;;;;;;;;23.25;18.75;;;;;14.36;97.00;101433.28;5030611;28;45559;-69
2023/04/06 08:59:28;;;;;;;;;27.25;22.25;;;;;14.29;96.99;101425.28;5031215;28;46766;-70
2023/04/06 09:01:54;;;;;;;;;25.00;22.50;;;;;14.23;96.88;101417.28;5031404;28;46478;-69
2023/04/06 09:04:20;;;;;;;;;29.75;22.25;;;;;14.26;97.62;101423.47;5017381;28;45412;-69
2023/04/06 09:06:45;;;;;;;;;25.75;22.50;;;;;14.31;98.29;101428.81;5035884;28;45313;-69
2023/04/06 09:09:11;;;;;;;;;27.00;22.75;;;;;14.32;98.82;101439.44;5034909;28;51469;-69
2023/04/06 09:11:48;;;;;;;;;24.50;19.50;;;;;14.31;100.00;101443.00;5032160;28;46134;-70
2023/04/06 09:14:15;;;;;;;;;21.00;19.50;;;;;14.30;100.00;101453.63;5038955;28;45471;-69
2023/04/06 09:16:45;;;;;;;;;27.50;23.75;;;;;14.23;100.00;101451.81;5033934;28;45330;-69
2023/04/06 09:19:11;;;;;;;;;20.50;17.25;;;;;14.21;100.00;101453.56;5016504;28;45675;-69
2023/04/06 09:21:37;;;;;;;;;22.50;17.00;;;;;14.15;100.00;101444.66;5031972;28;45459;-69
2023/04/06 09:24:04;;;;;;;;;23.00;18.25;;;;;14.12;100.00;101444.66;5029395;28;45585;-69
2023/04/06 09:26:30;;;;;;;;;21.25;18.00;;;;;14.13;100.00;101437.59;5034400;28;45505;-69
2023/04/06 09:28:57;;;;;;;;;23.75;20.50;;;;;14.20;100.00;101442.03;5034363;28;45450;-69
2023/04/06 09:31:27;;;;;;;;;24.25;17.75;;;;;14.18;100.00;101438.50;5035446;28;46411;-71
2023/04/06 09:33:53;;;;;;;;;25.25;17.00;;;;;14.15;100.00;101444.66;5042758;22;46478;-69
2023/04/06 09:36:19;;;;;;;;;15.75;13.25;;;;;14.13;100.00;101446.44;5051191;22;46771;-69
2023/04/06 09:38:53;;;;;;;;;17.50;13.25;;;;;14.14;100.00;101442.91;5053065;22;45718;-69
2023/04/06 09:41:35;;;;;;;;;14.00;13.00;;;;;14.11;100.00;101437.59;5025686;28;45941;-69
2023/04/06 09:44:11;;;;;;;;;20.75;13.75;;;;;14.12;100.00;101451.75;5038825;28;45504;-69
2023/04/06 09:46:39;;;;;;;;;15.25;14.00;;;;;14.07;100.00;101448.16;5035622;28;45660;-68
2023/04/06 09:49:06;;;;;;;;;8.75;7.00;;;;;13.97;100.00;101443.69;5031864;28;45466;-69
2023/04/06 09:51:38;;;;;;;;;13.75;12.75;;;;;13.89;100.00;101452.44;5035831;28;46504;-69
2023/04/06 09:54:04;;;;;;;;;12.25;10.75;;;;;13.79;100.00;101455.91;5037940;28;45673;-68
2023/04/06 09:56:51;;;;;;;;;11.25;11.25;;;;;13.71;100.00;101457.63;5035772;28;45555;-69
2023/04/06 09:59:48;;;;;;;;;14.75;13.50;;;;;13.69;100.00;101459.41;5033258;28;45440;-70
2023/04/06 10:02:46;;;;;;;;;12.75;11.25;;;;;13.70;100.00;101457.63;5012529;28;45834;-72
2023/04/06 10:05:27;;;;;;;;;12.75;10.25;;;;;13.73;100.00;101460.28;5036434;28;45691;-72
2023/04/06 10:07:55;;;;;;;;;11.00;9.50;;;;;13.74;100.00;101459.41;5034846;28;45380;-73
2023/04/06 10:10:20;;;;;;;;;12.25;10.00;;;;;13.80;100.00;101441.78;5030284;28;45482;-70
2023/04/06 10:12:47;;;;;;;;;14.50;11.75;;;;;13.91;100.00;101433.91;5031112;28;62881;-71
2023/04/06 10:15:12;;;;;;;;;12.00;11.50;;;;;14.14;100.00;101432.28;5028257;28;45612;-73
2023/04/06 10:17:38;;;;;;;;;11.25;11.25;;;;;14.34;100.00;101439.47;5030923;28;45418;-68
2023/04/06 10:20:14;;;;;;;;;15.67;11.00;;;;;14.48;100.00;101439.56;5030964;28;53949;-68
2023/04/06 10:22:59;;;;;;;;;14.00;10.50;;;;;14.58;100.00;101441.38;5042157;28;47296;-68
2023/04/06 10:25:32;;;;;;;;;10.00;8.33;;;;;14.63;100.00;101458.22;5033333;28;45821;-67
2023/04/06 10:28:07;;;;;;;;;10.67;9.33;;;;;14.65;100.00;101444.09;5028706;28;45577;-68
2023/04/06 10:30:34;;;;;;;;;9.00;8.00;;;;;14.66;100.00;101453.84;5026776;28;45464;-68
2023/04/06 10:32:59;;;;;;;;;8.33;8.00;;;;;14.65;100.00;101457.38;5033101;28;46655;-69
2023/04/06 10:35:36;;;;;;;;;11.00;9.33;;;;;14.67;100.00;101471.56;5032989;28;45425;-70
2023/04/06 10:38:03;;;;;;;;;10.75;8.50;;;;;14.66;100.00;101455.59;5026000;28;45480;-69
2023/04/06 10:40:31;;;;;;;;;11.50;8.25;;;;;14.62;100.00;101449.38;5031723;28;46892;-70
2023/04/06 10:43:10;;;;;;;;;11.25;11.00;;;;;14.61;100.00;101447.59;5026247;28;45521;-72
2023/04/06 10:45:36;;;;;;;;;9.33;8.00;;;;;14.75;100.00;101447.66;5035341;28;45367;-71
2023/04/06 10:48:18;;;;;;;;;13.75;11.50;;;;;14.89;100.00;101455.69;5032965;28;45552;-70
2023/04/06 10:50:46;;;;;;;;;8.25;8.25;;;;;14.91;100.00;101452.16;5033218;28;46645;-68
2023/04/06 10:53:12;;;;;;;;;11.75;6.00;;;;;14.89;100.00;101447.72;5029155;28;45444;-69
2023/04/06 10:55:40;;;;;;;;;8.33;8.33;;;;;14.85;100.00;101441.47;5032849;28;45495;-70
2023/04/06 10:58:08;;;;;;;;;12.33;9.33;;;;;14.89;100.00;101445.94;5033530;28;45324;-71
2023/04/06 11:00:34;;;;;;;;;8.00;7.00;;;;;14.98;100.00;101452.19;5032195;28;45686;-70
2023/04/06 11:03:03;;;;;;;;;10.33;8.33;;;;;14.99;100.00;101452.16;5034460;28;46440;-70